sensor_id;sensor_type;location;lat;lon;timestamp;pressure;altitude;pressure_sealevel;temperature;humidity
48926;BME280;39838;59.938;30.642;2022-11-20T00:01:20;101218.53;;;-3.77;66.71
48926;BME280;39838;59.938;30.642;2022-11-20T00:03:48;101232.06;;;-3.65;66.11
48926;BME280;39838;59.938;30.642;2022-11-20T00:06:18;101234.38;;;-3.68;66.41
48926;BME280;39838;59.938;30.642;2022-11-20T00:08:46;101234.38;;;-3.68;66.70
48926;BME280;39838;59.938;30.642;2022-11-20T00:11:15;101237.25;;;-3.63;66.54
48926;BME280;39838;59.938;30.642;2022-11-20T00:13:42;101233.84;;;-3.64;66.62
48926;BME280;39838;59.938;30.642;2022-11-20T00:16:11;101234.91;;;-3.60;66.79
48926;BME280;39838;59.938;30.642;2022-11-20T00:18:40;101223.31;;;-3.57;66.63
48926;BME280;39838;59.938;30.642;2022-11-20T00:21:11;101220.19;;;-3.52;66.20
48926;BME280;39838;59.938;30.642;2022-11-20T00:23:39;101216.47;;;-3.58;66.41
48926;BME280;39838;59.938;30.642;2022-11-20T00:26:08;101215.88;;;-3.53;66.35
48926;BME280;39838;59.938;30.642;2022-11-20T00:28:36;101219.00;;;-3.58;66.23
48926;BME280;39838;59.938;30.642;2022-11-20T00:31:05;101183.75;;;-3.78;66.47
48926;BME280;39838;59.938;30.642;2022-11-20T00:33:32;101210.19;;;-3.63;66.39
48926;BME280;39838;59.938;30.642;2022-11-20T00:36:02;101207.66;;;-3.63;66.41
48926;BME280;39838;59.938;30.642;2022-11-20T00:38:29;101205.78;;;-3.65;66.48
48926;BME280;39838;59.938;30.642;2022-11-20T00:40:57;101198.28;;;-3.64;66.95
48926;BME280;39838;59.938;30.642;2022-11-20T00:43:25;101199.25;;;-3.62;66.93
48926;BME280;39838;59.938;30.642;2022-11-20T00:45:56;101200.13;;;-3.61;66.67
48926;BME280;39838;59.938;30.642;2022-11-20T00:48:24;101205.66;;;-3.67;66.58
48926;BME280;39838;59.938;30.642;2022-11-20T00:50:51;101195.41;;;-3.68;66.80
48926;BME280;39838;59.938;30.642;2022-11-20T00:53:20;101202.72;;;-3.73;66.52
48926;BME280;39838;59.938;30.642;2022-11-20T00:55:54;101174.31;;;-3.92;66.75
48926;BME280;39838;59.938;30.642;2022-11-20T00:58:22;101189.25;;;-3.72;66.67
48926;BME280;39838;59.938;30.642;2022-11-20T01:00:49;101188.16;;;-3.75;66.82
48926;BME280;39838;59.938;30.642;2022-11-20T01:03:16;101183.53;;;-3.81;67.46
48926;BME280;39838;59.938;30.642;2022-11-20T01:05:44;101188.94;;;-3.76;67.20
48926;BME280;39838;59.938;30.642;2022-11-20T01:08:11;101185.72;;;-3.74;66.76
48926;BME280;39838;59.938;30.642;2022-11-20T01:10:39;101185.84;;;-3.72;66.98
48926;BME280;39838;59.938;30.642;2022-11-20T01:13:06;101184.94;;;-3.73;67.45
48926;BME280;39838;59.938;30.642;2022-11-20T01:15:51;101183.31;;;-3.72;66.97
48926;BME280;39838;59.938;30.642;2022-11-20T01:18:18;101181.50;;;-3.73;66.88
48926;BME280;39838;59.938;30.642;2022-11-20T01:20:45;101180.53;;;-3.75;67.37
48926;BME280;39838;59.938;30.642;2022-11-20T01:23:12;101182.28;;;-3.74;67.32
48926;BME280;39838;59.938;30.642;2022-11-20T01:25:40;101184.19;;;-3.72;67.35
48926;BME280;39838;59.938;30.642;2022-11-20T01:28:07;101171.56;;;-3.70;67.23
48926;BME280;39838;59.938;30.642;2022-11-20T01:30:34;101166.28;;;-3.73;66.88
48926;BME280;39838;59.938;30.642;2022-11-20T01:33:02;101156.13;;;-3.73;67.04
48926;BME280;39838;59.938;30.642;2022-11-20T01:35:29;101150.53;;;-3.81;67.09
48926;BME280;39838;59.938;30.642;2022-11-20T01:37:56;101158.94;;;-3.82;67.38
48926;BME280;39838;59.938;30.642;2022-11-20T01:40:23;101163.22;;;-3.81;67.05
48926;BME280;39838;59.938;30.642;2022-11-20T01:42:59;101160.59;;;-3.82;66.78
48926;BME280;39838;59.938;30.642;2022-11-20T01:46:13;101156.19;;;-3.85;67.41
48926;BME280;39838;59.938;30.642;2022-11-20T01:48:46;101155.69;;;-3.79;67.18
48926;BME280;39838;59.938;30.642;2022-11-20T01:51:19;101153.38;;;-3.76;66.86
48926;BME280;39838;59.938;30.642;2022-11-20T01:53:48;101165.81;;;-3.68;67.04
48926;BME280;39838;59.938;30.642;2022-11-20T01:56:16;101152.22;;;-3.68;67.27
48926;BME280;39838;59.938;30.642;2022-11-20T01:58:47;101151.81;;;-3.74;66.80
48926;BME280;39838;59.938;30.642;2022-11-20T02:01:15;101157.22;;;-3.70;67.30
48926;BME280;39838;59.938;30.642;2022-11-20T02:03:43;101155.88;;;-3.65;67.01
48926;BME280;39838;59.938;30.642;2022-11-20T02:06:14;101156.75;;;-3.64;67.14
48926;BME280;39838;59.938;30.642;2022-11-20T02:08:43;101147.75;;;-3.59;66.89
48926;BME280;39838;59.938;30.642;2022-11-20T02:11:10;101146.13;;;-3.59;66.91
48926;BME280;39838;59.938;30.642;2022-11-20T02:13:39;101147.00;;;-3.58;66.96
48926;BME280;39838;59.938;30.642;2022-11-20T02:16:14;101141.72;;;-3.61;66.80
48926;BME280;39838;59.938;30.642;2022-11-20T02:18:42;101156.56;;;-3.54;66.43
48926;BME280;39838;59.938;30.642;2022-11-20T02:21:17;101150.78;;;-3.65;66.69
48926;BME280;39838;59.938;30.642;2022-11-20T02:24:08;101116.44;;;-3.85;66.92
48926;BME280;39838;59.938;30.642;2022-11-20T02:26:45;101126.44;;;-3.74;66.90
48926;BME280;39838;59.938;30.642;2022-11-20T02:29:16;101144.16;;;-3.63;66.94
48926;BME280;39838;59.938;30.642;2022-11-20T02:31:44;101141.28;;;-3.67;66.96
48926;BME280;39838;59.938;30.642;2022-11-20T02:34:12;101138.56;;;-3.70;67.05
48926;BME280;39838;59.938;30.642;2022-11-20T02:36:41;101130.53;;;-3.76;66.78
48926;BME280;39838;59.938;30.642;2022-11-20T02:39:11;101137.00;;;-3.68;66.72
48926;BME280;39838;59.938;30.642;2022-11-20T02:41:42;101141.50;;;-3.64;66.65
48926;BME280;39838;59.938;30.642;2022-11-20T02:44:09;101138.66;;;-3.69;66.96
48926;BME280;39838;59.938;30.642;2022-11-20T02:46:36;101135.69;;;-3.75;66.56
48926;BME280;39838;59.938;30.642;2022-11-20T02:49:04;101133.06;;;-3.76;67.10
48926;BME280;39838;59.938;30.642;2022-11-20T02:51:32;101141.75;;;-3.73;67.31
48926;BME280;39838;59.938;30.642;2022-11-20T02:54:00;101133.38;;;-3.72;67.11
48926;BME280;39838;59.938;30.642;2022-11-20T02:56:29;101135.38;;;-3.79;67.10
48926;BME280;39838;59.938;30.642;2022-11-20T02:58:56;101126.59;;;-3.85;67.68
48926;BME280;39838;59.938;30.642;2022-11-20T03:01:23;101134.03;;;-3.74;67.69
48926;BME280;39838;59.938;30.642;2022-11-20T03:03:50;101129.59;;;-3.65;67.06
48926;BME280;39838;59.938;30.642;2022-11-20T03:06:20;101129.88;;;-3.61;66.96
48926;BME280;39838;59.938;30.642;2022-11-20T03:08:47;101131.94;;;-3.55;67.00
48926;BME280;39838;59.938;30.642;2022-11-20T03:11:14;101126.88;;;-3.55;67.04
48926;BME280;39838;59.938;30.642;2022-11-20T03:13:43;101119.72;;;-3.61;66.97
48926;BME280;39838;59.938;30.642;2022-11-20T03:16:12;101125.69;;;-3.60;66.81
48926;BME280;39838;59.938;30.642;2022-11-20T03:18:40;101129.00;;;-3.61;67.03
48926;BME280;39838;59.938;30.642;2022-11-20T03:21:08;101127.44;;;-3.59;67.22
48926;BME280;39838;59.938;30.642;2022-11-20T03:23:36;101129.41;;;-3.55;66.94
48926;BME280;39838;59.938;30.642;2022-11-20T03:26:12;101125.22;;;-3.54;66.87
48926;BME280;39838;59.938;30.642;2022-11-20T03:28:40;101127.09;;;-3.52;67.08
48926;BME280;39838;59.938;30.642;2022-11-20T03:31:10;101130.97;;;-3.57;67.35
48926;BME280;39838;59.938;30.642;2022-11-20T03:33:38;101127.16;;;-3.64;66.52
48926;BME280;39838;59.938;30.642;2022-11-20T03:36:07;101106.69;;;-3.78;66.91
48926;BME280;39838;59.938;30.642;2022-11-20T03:38:34;101126.84;;;-3.68;67.33
48926;BME280;39838;59.938;30.642;2022-11-20T03:41:03;101125.28;;;-3.66;67.11
48926;BME280;39838;59.938;30.642;2022-11-20T03:43:31;101127.16;;;-3.64;66.51
48926;BME280;39838;59.938;30.642;2022-11-20T03:45:59;101122.84;;;-3.65;66.97
48926;BME280;39838;59.938;30.642;2022-11-20T03:48:27;101122.72;;;-3.66;66.95
48926;BME280;39838;59.938;30.642;2022-11-20T03:51:07;101119.22;;;-3.68;66.30
48926;BME280;39838;59.938;30.642;2022-11-20T03:53:34;101125.06;;;-3.69;66.27
48926;BME280;39838;59.938;30.642;2022-11-20T03:56:02;101129.28;;;-3.70;66.19
48926;BME280;39838;59.938;30.642;2022-11-20T03:58:29;101116.69;;;-3.68;66.51
48926;BME280;39838;59.938;30.642;2022-11-20T04:00:56;101123.84;;;-3.63;66.21
48926;BME280;39838;59.938;30.642;2022-11-20T04:03:23;101121.38;;;-3.61;66.71
48926;BME280;39838;59.938;30.642;2022-11-20T04:05:52;101121.47;;;-3.60;66.50
48926;BME280;39838;59.938;30.642;2022-11-20T04:08:19;101111.50;;;-3.70;66.32
48926;BME280;39838;59.938;30.642;2022-11-20T04:10:46;101112.94;;;-3.73;66.15
48926;BME280;39838;59.938;30.642;2022-11-20T04:13:13;101121.75;;;-3.68;65.94
48926;BME280;39838;59.938;30.642;2022-11-20T04:15:40;101117.19;;;-3.61;66.50
48926;BME280;39838;59.938;30.642;2022-11-20T04:18:07;101113.66;;;-3.63;66.30
48926;BME280;39838;59.938;30.642;2022-11-20T04:20:35;101110.34;;;-3.62;66.05
48926;BME280;39838;59.938;30.642;2022-11-20T04:23:03;101114.88;;;-3.58;65.96
48926;BME280;39838;59.938;30.642;2022-11-20T04:25:30;101090.81;;;-3.63;65.95
48926;BME280;39838;59.938;30.642;2022-11-20T04:27:57;101108.53;;;-3.51;65.63
48926;BME280;39838;59.938;30.642;2022-11-20T04:30:25;101105.69;;;-3.55;65.63
48926;BME280;39838;59.938;30.642;2022-11-20T04:32:52;101094.72;;;-3.54;66.07
48926;BME280;39838;59.938;30.642;2022-11-20T04:35:19;101100.78;;;-3.52;66.13
48926;BME280;39838;59.938;30.642;2022-11-20T04:37:46;101105.09;;;-3.51;65.88
48926;BME280;39838;59.938;30.642;2022-11-20T04:40:15;101105.38;;;-3.47;65.60
48926;BME280;39838;59.938;30.642;2022-11-20T04:42:42;101098.38;;;-3.51;65.74
48926;BME280;39838;59.938;30.642;2022-11-20T04:45:09;101101.69;;;-3.52;66.12
48926;BME280;39838;59.938;30.642;2022-11-20T04:47:36;101097.59;;;-3.50;65.98
48926;BME280;39838;59.938;30.642;2022-11-20T04:50:04;101098.38;;;-3.51;65.79
48926;BME280;39838;59.938;30.642;2022-11-20T04:52:31;101097.50;;;-3.51;66.20
48926;BME280;39838;59.938;30.642;2022-11-20T04:54:58;101105.88;;;-3.52;65.89
48926;BME280;39838;59.938;30.642;2022-11-20T04:57:27;101108.53;;;-3.51;66.17
48926;BME280;39838;59.938;30.642;2022-11-20T04:59:54;101103.13;;;-3.55;65.63
48926;BME280;39838;59.938;30.642;2022-11-20T05:02:21;101097.66;;;-3.62;65.97
48926;BME280;39838;59.938;30.642;2022-11-20T05:04:48;101100.66;;;-3.67;65.93
48926;BME280;39838;59.938;30.642;2022-11-20T05:07:15;101112.38;;;-3.69;66.09
48926;BME280;39838;59.938;30.642;2022-11-20T05:09:42;101103.00;;;-3.70;66.05
48926;BME280;39838;59.938;30.642;2022-11-20T05:12:10;101106.09;;;-3.74;65.50
48926;BME280;39838;59.938;30.642;2022-11-20T05:14:38;101104.72;;;-3.82;65.81
48926;BME280;39838;59.938;30.642;2022-11-20T05:17:05;101102.75;;;-3.87;66.02
48926;BME280;39838;59.938;30.642;2022-11-20T05:19:32;101101.69;;;-3.90;66.37
48926;BME280;39838;59.938;30.642;2022-11-20T05:21:59;101100.78;;;-3.91;66.24
48926;BME280;39838;59.938;30.642;2022-11-20T05:24:26;101102.75;;;-3.87;66.47
48926;BME280;39838;59.938;30.642;2022-11-20T05:26:53;101107.81;;;-3.87;65.90
48926;BME280;39838;59.938;30.642;2022-11-20T05:29:21;101106.28;;;-3.85;66.17
48926;BME280;39838;59.938;30.642;2022-11-20T05:31:49;101104.53;;;-3.86;66.35
48926;BME280;39838;59.938;30.642;2022-11-20T05:34:16;101111.47;;;-3.83;66.58
48926;BME280;39838;59.938;30.642;2022-11-20T05:36:43;101119.88;;;-3.84;66.10
48926;BME280;39838;59.938;30.642;2022-11-20T05:39:10;101114.78;;;-3.84;66.10
48926;BME280;39838;59.938;30.642;2022-11-20T05:41:37;101113.81;;;-3.86;66.05
48926;BME280;39838;59.938;30.642;2022-11-20T05:44:04;101111.16;;;-3.88;66.10
48926;BME280;39838;59.938;30.642;2022-11-20T05:46:31;101111.28;;;-3.86;65.97
48926;BME280;39838;59.938;30.642;2022-11-20T05:49:00;101106.06;;;-3.88;66.58
48926;BME280;39838;59.938;30.642;2022-11-20T05:51:27;101087.22;;;-3.91;66.69
48926;BME280;39838;59.938;30.642;2022-11-20T05:53:56;101110.13;;;-3.78;66.33
48926;BME280;39838;59.938;30.642;2022-11-20T05:56:24;101104.66;;;-3.71;66.33
48926;BME280;39838;59.938;30.642;2022-11-20T05:58:51;101111.81;;;-3.65;65.98
48926;BME280;39838;59.938;30.642;2022-11-20T06:01:20;101114.34;;;-3.65;66.42
48926;BME280;39838;59.938;30.642;2022-11-20T06:03:48;101116.53;;;-3.58;66.38
48926;BME280;39838;59.938;30.642;2022-11-20T06:06:18;101115.16;;;-3.53;66.36
48926;BME280;39838;59.938;30.642;2022-11-20T06:08:45;101118.69;;;-3.51;66.12
48926;BME280;39838;59.938;30.642;2022-11-20T06:11:13;101118.56;;;-3.52;65.99
48926;BME280;39838;59.938;30.642;2022-11-20T06:13:41;101119.97;;;-3.44;65.87
48926;BME280;39838;59.938;30.642;2022-11-20T06:16:09;101122.13;;;-3.37;65.84
48926;BME280;39838;59.938;30.642;2022-11-20T06:18:37;101122.53;;;-3.31;65.65
48926;BME280;39838;59.938;30.642;2022-11-20T06:21:06;101130.44;;;-3.26;65.84
48926;BME280;39838;59.938;30.642;2022-11-20T06:23:35;101077.66;;;-3.44;65.52
48926;BME280;39838;59.938;30.642;2022-11-20T06:26:04;101122.81;;;-3.13;65.55
48926;BME280;39838;59.938;30.642;2022-11-20T06:28:31;101129.66;;;-3.12;65.03
48926;BME280;39838;59.938;30.642;2022-11-20T06:30:59;101127.03;;;-3.14;65.24
48926;BME280;39838;59.938;30.642;2022-11-20T06:33:26;101128.78;;;-3.13;65.24
48926;BME280;39838;59.938;30.642;2022-11-20T06:35:56;101120.75;;;-3.19;64.89
48926;BME280;39838;59.938;30.642;2022-11-20T06:38:23;101123.81;;;-3.24;65.17
48926;BME280;39838;59.938;30.642;2022-11-20T06:40:52;101114.91;;;-3.31;65.48
48926;BME280;39838;59.938;30.642;2022-11-20T06:43:19;101116.19;;;-3.38;65.61
48926;BME280;39838;59.938;30.642;2022-11-20T06:45:51;101069.53;;;-3.65;65.34
48926;BME280;39838;59.938;30.642;2022-11-20T06:48:18;101110.97;;;-3.39;65.29
48926;BME280;39838;59.938;30.642;2022-11-20T06:50:45;101094.81;;;-3.53;65.73
48926;BME280;39838;59.938;30.642;2022-11-20T06:53:13;101115.28;;;-3.38;65.55
48926;BME280;39838;59.938;30.642;2022-11-20T06:55:42;101115.28;;;-3.38;65.74
48926;BME280;39838;59.938;30.642;2022-11-20T06:58:11;101117.44;;;-3.31;66.04
48926;BME280;39838;59.938;30.642;2022-11-20T07:00:38;101110.22;;;-3.25;65.44
48926;BME280;39838;59.938;30.642;2022-11-20T07:03:05;101117.25;;;-3.21;65.36
48926;BME280;39838;59.938;30.642;2022-11-20T07:05:32;101120.66;;;-3.20;65.38
48926;BME280;39838;59.938;30.642;2022-11-20T07:08:00;101124.88;;;-3.21;65.29
48926;BME280;39838;59.938;30.642;2022-11-20T07:10:27;101124.78;;;-3.22;65.07
48926;BME280;39838;59.938;30.642;2022-11-20T07:12:54;101123.81;;;-3.24;65.62
48926;BME280;39838;59.938;30.642;2022-11-20T07:15:24;101128.91;;;-3.24;65.24
48926;BME280;39838;59.938;30.642;2022-11-20T07:17:51;101130.84;;;-3.20;65.23
48926;BME280;39838;59.938;30.642;2022-11-20T07:20:18;101124.78;;;-3.09;65.34
48926;BME280;39838;59.938;30.642;2022-11-20T07:22:45;101132.72;;;-3.05;65.17
48926;BME280;39838;59.938;30.642;2022-11-20T07:25:13;101128.69;;;-3.14;65.14
48926;BME280;39838;59.938;30.642;2022-11-20T07:27:40;101129.00;;;-3.10;65.42
48926;BME280;39838;59.938;30.642;2022-11-20T07:30:07;101134.34;;;-3.05;65.17
48926;BME280;39838;59.938;30.642;2022-11-20T07:32:36;101134.56;;;-3.02;65.67
48926;BME280;39838;59.938;30.642;2022-11-20T07:35:03;101136.81;;;-2.93;65.45
48926;BME280;39838;59.938;30.642;2022-11-20T07:37:33;101111.38;;;-3.07;65.38
48926;BME280;39838;59.938;30.642;2022-11-20T07:40:00;101138.78;;;-2.89;65.33
48926;BME280;39838;59.938;30.642;2022-11-20T07:42:29;101144.94;;;-2.86;65.15
48926;BME280;39838;59.938;30.642;2022-11-20T07:44:56;101145.16;;;-2.83;65.24
48926;BME280;39838;59.938;30.642;2022-11-20T07:47:24;101146.59;;;-2.73;65.25
48926;BME280;39838;59.938;30.642;2022-11-20T07:49:52;101146.81;;;-2.70;64.76
48926;BME280;39838;59.938;30.642;2022-11-20T07:52:19;101142.59;;;-2.69;64.65
48926;BME280;39838;59.938;30.642;2022-11-20T07:54:46;101142.88;;;-2.65;64.80
48926;BME280;39838;59.938;30.642;2022-11-20T07:57:13;101141.59;;;-2.58;64.59
48926;BME280;39838;59.938;30.642;2022-11-20T07:59:40;101146.56;;;-2.47;64.69
48926;BME280;39838;59.938;30.642;2022-11-20T08:02:09;101139.03;;;-2.45;64.29
48926;BME280;39838;59.938;30.642;2022-11-20T08:04:37;101139.44;;;-2.52;63.79
48926;BME280;39838;59.938;30.642;2022-11-20T08:07:05;101147.47;;;-2.59;64.07
48926;BME280;39838;59.938;30.642;2022-11-20T08:09:32;101141.97;;;-2.65;64.20
48926;BME280;39838;59.938;30.642;2022-11-20T08:11:59;101147.88;;;-2.66;63.92
48926;BME280;39838;59.938;30.642;2022-11-20T08:14:44;101150.31;;;-2.68;64.11
48926;BME280;39838;59.938;30.642;2022-11-20T08:17:11;101152.56;;;-2.72;63.95
48926;BME280;39838;59.938;30.642;2022-11-20T08:19:38;101146.19;;;-2.79;64.04
48926;BME280;39838;59.938;30.642;2022-11-20T08:22:07;101140.06;;;-2.83;64.37
48926;BME280;39838;59.938;30.642;2022-11-20T08:24:34;101136.34;;;-2.88;64.44
48926;BME280;39838;59.938;30.642;2022-11-20T08:27:01;101141.41;;;-2.88;64.44
48926;BME280;39838;59.938;30.642;2022-11-20T08:29:28;101140.72;;;-2.85;64.61
48926;BME280;39838;59.938;30.642;2022-11-20T08:31:55;101144.34;;;-2.82;64.49
48926;BME280;39838;59.938;30.642;2022-11-20T08:34:22;101150.63;;;-2.77;64.18
48926;BME280;39838;59.938;30.642;2022-11-20T08:36:49;101153.03;;;-2.78;64.10
48926;BME280;39838;59.938;30.642;2022-11-20T08:39:18;101156.28;;;-2.81;64.38
48926;BME280;39838;59.938;30.642;2022-11-20T08:41:45;101155.59;;;-2.78;64.44
48926;BME280;39838;59.938;30.642;2022-11-20T08:44:12;101158.66;;;-2.84;64.38
48926;BME280;39838;59.938;30.642;2022-11-20T08:46:40;101160.97;;;-2.87;64.43
48926;BME280;39838;59.938;30.642;2022-11-20T08:49:10;101154.34;;;-2.98;64.53
48926;BME280;39838;59.938;30.642;2022-11-20T08:51:38;101151.09;;;-2.95;64.33
48926;BME280;39838;59.938;30.642;2022-11-20T08:54:06;101162.47;;;-2.90;64.44
48926;BME280;39838;59.938;30.642;2022-11-20T08:56:35;101142.22;;;-3.02;64.08
48926;BME280;39838;59.938;30.642;2022-11-20T08:59:03;101157.84;;;-2.96;64.68
48926;BME280;39838;59.938;30.642;2022-11-20T09:01:30;101164.41;;;-2.86;64.48
48926;BME280;39838;59.938;30.642;2022-11-20T09:03:57;101160.81;;;-2.77;64.43
48926;BME280;39838;59.938;30.642;2022-11-20T09:06:25;101137.78;;;-2.78;64.28
48926;BME280;39838;59.938;30.642;2022-11-20T09:08:52;101151.38;;;-2.64;64.32
48926;BME280;39838;59.938;30.642;2022-11-20T09:11:20;101152.47;;;-2.61;64.31
48926;BME280;39838;59.938;30.642;2022-11-20T09:13:49;101154.13;;;-2.61;64.13
48926;BME280;39838;59.938;30.642;2022-11-20T09:16:16;101148.63;;;-2.54;64.26
48926;BME280;39838;59.938;30.642;2022-11-20T09:18:43;101150.94;;;-2.44;64.14
48926;BME280;39838;59.938;30.642;2022-11-20T09:21:12;101153.31;;;-2.34;64.27
48926;BME280;39838;59.938;30.642;2022-11-20T09:23:40;101150.75;;;-2.34;64.20
48926;BME280;39838;59.938;30.642;2022-11-20T09:26:09;101155.06;;;-2.33;63.89
48926;BME280;39838;59.938;30.642;2022-11-20T09:28:37;101150.16;;;-2.30;63.75
48926;BME280;39838;59.938;30.642;2022-11-20T09:31:07;101143.13;;;-2.34;63.63
48926;BME280;39838;59.938;30.642;2022-11-20T09:33:35;101152.44;;;-2.34;63.63
48926;BME280;39838;59.938;30.642;2022-11-20T09:36:02;101142.75;;;-2.40;63.53
48926;BME280;39838;59.938;30.642;2022-11-20T09:38:29;101141.69;;;-2.43;63.73
48926;BME280;39838;59.938;30.642;2022-11-20T09:40:58;101069.44;;;-2.87;63.67
48926;BME280;39838;59.938;30.642;2022-11-20T09:43:40;101142.56;;;-2.43;63.90
48926;BME280;39838;59.938;30.642;2022-11-20T09:46:15;101145.38;;;-2.38;63.80
48926;BME280;39838;59.938;30.642;2022-11-20T09:49:05;101137.66;;;-2.40;63.68
48926;BME280;39838;59.938;30.642;2022-11-20T09:51:45;101130.13;;;-2.52;63.77
48926;BME280;39838;59.938;30.642;2022-11-20T09:54:16;101131.78;;;-2.52;63.95
48926;BME280;39838;59.938;30.642;2022-11-20T09:56:48;101132.59;;;-2.53;64.02
48926;BME280;39838;59.938;30.642;2022-11-20T09:59:29;101121.44;;;-2.55;63.92
48926;BME280;39838;59.938;30.642;2022-11-20T10:02:01;101119.28;;;-2.49;63.83
48926;BME280;39838;59.938;30.642;2022-11-20T10:04:32;101131.78;;;-2.39;63.71
48926;BME280;39838;59.938;30.642;2022-11-20T10:07:05;101122.75;;;-2.34;63.48
48926;BME280;39838;59.938;30.642;2022-11-20T10:09:35;101126.28;;;-2.32;63.41
48926;BME280;39838;59.938;30.642;2022-11-20T10:12:12;101093.13;;;-2.47;63.00
48926;BME280;39838;59.938;30.642;2022-11-20T10:14:50;101129.47;;;-2.21;63.56
48926;BME280;39838;59.938;30.642;2022-11-20T10:17:32;101122.22;;;-2.15;63.21
48926;BME280;39838;59.938;30.642;2022-11-20T10:20:15;101120.47;;;-2.16;63.13
48926;BME280;39838;59.938;30.642;2022-11-20T10:22:54;101125.22;;;-2.07;62.80
48926;BME280;39838;59.938;30.642;2022-11-20T10:25:33;101124.69;;;-2.16;62.91
48926;BME280;39838;59.938;30.642;2022-11-20T10:28:17;101083.78;;;-2.33;63.12
48926;BME280;39838;59.938;30.642;2022-11-20T10:30:56;101129.19;;;-1.98;63.04
48926;BME280;39838;59.938;30.642;2022-11-20T10:33:27;101123.38;;;-1.82;62.64
48926;BME280;39838;59.938;30.642;2022-11-20T10:36:04;101127.84;;;-1.78;62.46
48926;BME280;39838;59.938;30.642;2022-11-20T10:38:37;101123.63;;;-1.77;62.61
48926;BME280;39838;59.938;30.642;2022-11-20T10:41:06;101130.75;;;-1.72;62.41
48926;BME280;39838;59.938;30.642;2022-11-20T10:43:56;101135.94;;;-1.70;62.38
48926;BME280;39838;59.938;30.642;2022-11-20T10:46:25;101138.47;;;-1.70;62.23
48926;BME280;39838;59.938;30.642;2022-11-20T10:49:00;101146.31;;;-1.67;62.18
48926;BME280;39838;59.938;30.642;2022-11-20T10:51:35;101063.84;;;-2.12;62.13
48926;BME280;39838;59.938;30.642;2022-11-20T10:54:12;101119.59;;;-1.74;62.13
48926;BME280;39838;59.938;30.642;2022-11-20T10:56:46;101130.38;;;-1.78;62.08
48926;BME280;39838;59.938;30.642;2022-11-20T10:59:41;101131.81;;;-1.83;62.25
48926;BME280;39838;59.938;30.642;2022-11-20T11:02:19;101127.66;;;-1.81;62.39
48926;BME280;39838;59.938;30.642;2022-11-20T11:04:49;101062.78;;;-2.15;62.12
48926;BME280;39838;59.938;30.642;2022-11-20T11:07:20;101128.13;;;-1.73;61.92
48926;BME280;39838;59.938;30.642;2022-11-20T11:09:50;101129.59;;;-1.77;62.52
48926;BME280;39838;59.938;30.642;2022-11-20T11:12:19;101134.69;;;-1.77;61.99
48926;BME280;39838;59.938;30.642;2022-11-20T11:14:48;101103.72;;;-1.98;61.82
48926;BME280;39838;59.938;30.642;2022-11-20T11:17:27;101142.75;;;-1.84;61.94
48926;BME280;39838;59.938;30.642;2022-11-20T11:20:04;101151.28;;;-1.83;61.97
48926;BME280;39838;59.938;30.642;2022-11-20T11:22:34;101138.88;;;-1.92;61.97
48926;BME280;39838;59.938;30.642;2022-11-20T11:25:02;101141.19;;;-1.82;62.17
48926;BME280;39838;59.938;30.642;2022-11-20T11:27:29;101144.13;;;-1.76;62.04
48926;BME280;39838;59.938;30.642;2022-11-20T11:30:12;101099.00;;;-1.92;61.83
48926;BME280;39838;59.938;30.642;2022-11-20T11:32:41;101132.78;;;-1.66;61.94
48926;BME280;39838;59.938;30.642;2022-11-20T11:35:21;101128.47;;;-1.67;61.77
48926;BME280;39838;59.938;30.642;2022-11-20T11:37:49;101136.81;;;-1.70;61.70
48926;BME280;39838;59.938;30.642;2022-11-20T11:40:18;101128.91;;;-1.74;62.09
48926;BME280;39838;59.938;30.642;2022-11-20T11:42:51;101124.84;;;-1.71;62.11
48926;BME280;39838;59.938;30.642;2022-11-20T11:45:20;101132.94;;;-1.63;61.79
48926;BME280;39838;59.938;30.642;2022-11-20T11:47:47;101127.69;;;-1.66;61.96
48926;BME280;39838;59.938;30.642;2022-11-20T11:50:19;101130.31;;;-1.65;61.83
48926;BME280;39838;59.938;30.642;2022-11-20T11:53:12;101134.53;;;-1.65;61.64
48926;BME280;39838;59.938;30.642;2022-11-20T11:55:42;101087.78;;;-1.95;62.04
48926;BME280;39838;59.938;30.642;2022-11-20T11:58:19;101130.75;;;-1.72;61.59
48926;BME280;39838;59.938;30.642;2022-11-20T12:00:54;101089.53;;;-1.94;61.87
48926;BME280;39838;59.938;30.642;2022-11-20T12:03:27;101127.53;;;-1.69;61.91
48926;BME280;39838;59.938;30.642;2022-11-20T12:06:01;101127.31;;;-1.72;61.95
48926;BME280;39838;59.938;30.642;2022-11-20T12:08:46;101124.31;;;-1.80;61.76
48926;BME280;39838;59.938;30.642;2022-11-20T12:11:20;101135.66;;;-1.89;62.08
48926;BME280;39838;59.938;30.642;2022-11-20T12:13:54;101142.22;;;-1.93;62.09
48926;BME280;39838;59.938;30.642;2022-11-20T12:16:27;101138.00;;;-1.93;62.13
48926;BME280;39838;59.938;30.642;2022-11-20T12:18:58;101090.50;;;-2.20;62.22
48926;BME280;39838;59.938;30.642;2022-11-20T12:21:32;101094.50;;;-2.24;62.47
48926;BME280;39838;59.938;30.642;2022-11-20T12:24:22;101138.03;;;-2.06;62.34
48926;BME280;39838;59.938;30.642;2022-11-20T12:27:01;101137.34;;;-2.03;62.29
48926;BME280;39838;59.938;30.642;2022-11-20T12:29:42;101068.56;;;-2.46;62.40
48926;BME280;39838;59.938;30.642;2022-11-20T12:32:31;101135.00;;;-2.00;62.23
48926;BME280;39838;59.938;30.642;2022-11-20T12:35:10;101135.38;;;-1.94;62.37
48926;BME280;39838;59.938;30.642;2022-11-20T12:37:48;101118.38;;;-2.08;62.63
48926;BME280;39838;59.938;30.642;2022-11-20T12:40:27;101067.34;;;-2.38;62.57
48926;BME280;39838;59.938;30.642;2022-11-20T12:43:01;101138.19;;;-1.89;62.50
48926;BME280;39838;59.938;30.642;2022-11-20T12:46:08;101138.38;;;-1.86;62.47
48926;BME280;39838;59.938;30.642;2022-11-20T12:48:53;101144.53;;;-1.83;62.43
48926;BME280;39838;59.938;30.642;2022-11-20T12:54:59;101151.56;;;-1.79;62.40
48926;BME280;39838;59.938;30.642;2022-11-20T12:57:35;101149.81;;;-1.80;62.24
48926;BME280;39838;59.938;30.642;2022-11-20T13:00:11;101139.44;;;-1.83;62.34